sensor_id;sensor_type;location;lat;lon;timestamp;pressure;altitude;pressure_sealevel;temperature;humidity
7075;BME280;3578;51.568;6.932;2023-04-22T00:01:57;48523.72;;;-144.14;100.00
7075;BME280;3578;51.568;6.932;2023-04-22T00:04:26;48451.66;;;-144.14;100.00
7075;BME280;3578;51.568;6.932;2023-04-22T00:06:53;48503.69;;;-144.14;100.00
7075;BME280;3578;51.568;6.932;2023-04-22T00:09:20;48295.56;;;-144.14;100.00
7075;BME280;3578;51.568;6.932;2023-04-22T00:11:47;48261.56;;;-144.14;100.00
7075;BME280;3578;51.568;6.932;2023-04-22T00:14:14;48323.59;;;-144.14;100.00
7075;BME280;3578;51.568;6.932;2023-04-22T00:16:41;48239.53;;;-144.14;100.00
7075;BME280;3578;51.568;6.932;2023-04-22T00:19:08;48279.56;;;-144.14;100.00
7075;BME280;3578;51.568;6.932;2023-04-22T00:21:36;48437.66;;;-144.14;100.00
7075;BME280;3578;51.568;6.932;2023-04-22T00:24:03;48555.75;;;-144.14;100.00
7075;BME280;3578;51.568;6.932;2023-04-22T00:26:30;48605.78;;;-144.14;100.00
7075;BME280;3578;51.568;6.932;2023-04-22T00:28:58;48607.78;;;-144.14;100.00
7075;BME280;3578;51.568;6.932;2023-04-22T00:31:25;48441.66;;;-144.14;100.00
7075;BME280;3578;51.568;6.932;2023-04-22T00:33:51;48349.59;;;-144.14;100.00
7075;BME280;3578;51.568;6.932;2023-04-22T00:36:18;48499.69;;;-144.14;100.00
7075;BME280;3578;51.568;6.932;2023-04-22T00:38:48;48587.75;;;-144.14;100.00
7075;BME280;3578;51.568;6.932;2023-04-22T00:41:16;48603.78;;;-144.14;100.00
7075;BME280;3578;51.568;6.932;2023-04-22T00:43:43;48531.72;;;-144.14;100.00
7075;BME280;3578;51.568;6.932;2023-04-22T00:46:11;48469.69;;;-144.14;100.00
7075;BME280;3578;51.568;6.932;2023-04-22T00:48:38;48543.72;;;-144.14;100.00
7075;BME280;3578;51.568;6.932;2023-04-22T00:51:06;48609.78;;;-144.14;100.00
7075;BME280;3578;51.568;6.932;2023-04-22T00:53:33;48651.81;;;-144.14;100.00
7075;BME280;3578;51.568;6.932;2023-04-22T00:56:01;48615.78;;;-144.14;100.00
7075;BME280;3578;51.568;6.932;2023-04-22T00:58:29;48525.72;;;-144.14;100.00
7075;BME280;3578;51.568;6.932;2023-04-22T01:00:56;48551.72;;;-144.14;100.00
7075;BME280;3578;51.568;6.932;2023-04-22T01:03:25;48583.75;;;-144.14;100.00
7075;BME280;3578;51.568;6.932;2023-04-22T01:05:55;48595.75;;;-144.14;100.00
7075;BME280;3578;51.568;6.932;2023-04-22T01:08:27;48593.75;;;-144.14;100.00
7075;BME280;3578;51.568;6.932;2023-04-22T01:10:55;48605.78;;;-144.14;100.00
7075;BME280;3578;51.568;6.932;2023-04-22T01:13:23;48623.78;;;-144.14;100.00
7075;BME280;3578;51.568;6.932;2023-04-22T01:15:50;48605.78;;;-144.14;100.00
7075;BME280;3578;51.568;6.932;2023-04-22T01:18:19;48575.75;;;-144.14;100.00
7075;BME280;3578;51.568;6.932;2023-04-22T01:20:46;48575.75;;;-144.14;100.00
7075;BME280;3578;51.568;6.932;2023-04-22T01:23:18;48551.72;;;-144.14;100.00
7075;BME280;3578;51.568;6.932;2023-04-22T01:25:45;48595.75;;;-144.14;100.00
7075;BME280;3578;51.568;6.932;2023-04-22T01:28:13;48479.69;;;-144.14;100.00
7075;BME280;3578;51.568;6.932;2023-04-22T01:30:40;48627.78;;;-144.14;100.00
7075;BME280;3578;51.568;6.932;2023-04-22T01:33:08;48619.78;;;-144.14;100.00
7075;BME280;3578;51.568;6.932;2023-04-22T01:35:36;48635.78;;;-144.14;100.00
7075;BME280;3578;51.568;6.932;2023-04-22T01:38:04;48563.75;;;-144.14;100.00
7075;BME280;3578;51.568;6.932;2023-04-22T01:40:33;48537.72;;;-144.14;100.00
7075;BME280;3578;51.568;6.932;2023-04-22T01:43:01;48569.75;;;-144.14;100.00
7075;BME280;3578;51.568;6.932;2023-04-22T01:45:29;48575.75;;;-144.14;100.00
7075;BME280;3578;51.568;6.932;2023-04-22T01:47:56;48597.75;;;-144.14;100.00
7075;BME280;3578;51.568;6.932;2023-04-22T01:50:23;48475.69;;;-144.14;100.00
7075;BME280;3578;51.568;6.932;2023-04-22T01:52:50;48329.59;;;-144.14;100.00
7075;BME280;3578;51.568;6.932;2023-04-22T01:55:17;48273.56;;;-144.14;100.00
7075;BME280;3578;51.568;6.932;2023-04-22T01:57:45;48217.53;;;-144.14;100.00
7075;BME280;3578;51.568;6.932;2023-04-22T02:00:13;48289.56;;;-144.14;100.00
7075;BME280;3578;51.568;6.932;2023-04-22T02:02:40;48449.66;;;-144.14;100.00
7075;BME280;3578;51.568;6.932;2023-04-22T02:05:08;48559.75;;;-144.14;100.00
7075;BME280;3578;51.568;6.932;2023-04-22T02:07:35;48601.75;;;-144.14;100.00
7075;BME280;3578;51.568;6.932;2023-04-22T02:10:03;48635.78;;;-144.14;100.00
7075;BME280;3578;51.568;6.932;2023-04-22T02:12:30;48599.75;;;-144.14;100.00
7075;BME280;3578;51.568;6.932;2023-04-22T02:14:59;48589.75;;;-144.14;100.00
7075;BME280;3578;51.568;6.932;2023-04-22T02:17:26;48597.75;;;-144.14;100.00
7075;BME280;3578;51.568;6.932;2023-04-22T02:19:53;48583.75;;;-144.14;100.00
7075;BME280;3578;51.568;6.932;2023-04-22T02:22:21;48545.72;;;-144.14;100.00
7075;BME280;3578;51.568;6.932;2023-04-22T02:24:49;48563.75;;;-144.14;100.00
7075;BME280;3578;51.568;6.932;2023-04-22T02:27:16;48579.75;;;-144.14;100.00
7075;BME280;3578;51.568;6.932;2023-04-22T02:29:43;48533.72;;;-144.14;100.00
7075;BME280;3578;51.568;6.932;2023-04-22T02:32:12;48535.72;;;-144.14;100.00
7075;BME280;3578;51.568;6.932;2023-04-22T02:34:40;48495.69;;;-144.14;100.00
7075;BME280;3578;51.568;6.932;2023-04-22T02:37:07;48531.72;;;-144.14;100.00
7075;BME280;3578;51.568;6.932;2023-04-22T02:39:34;48561.75;;;-144.14;100.00
7075;BME280;3578;51.568;6.932;2023-04-22T02:42:01;48611.78;;;-144.14;100.00
7075;BME280;3578;51.568;6.932;2023-04-22T02:44:28;48577.75;;;-144.14;100.00
7075;BME280;3578;51.568;6.932;2023-04-22T02:46:55;48333.59;;;-144.14;100.00
7075;BME280;3578;51.568;6.932;2023-04-22T02:49:24;48395.63;;;-144.14;100.00
7075;BME280;3578;51.568;6.932;2023-04-22T02:51:51;48439.66;;;-144.14;100.00
7075;BME280;3578;51.568;6.932;2023-04-22T02:54:18;48487.69;;;-144.14;100.00
7075;BME280;3578;51.568;6.932;2023-04-22T02:56:44;48335.59;;;-144.14;100.00
7075;BME280;3578;51.568;6.932;2023-04-22T02:59:12;48235.53;;;-144.14;100.00
7075;BME280;3578;51.568;6.932;2023-04-22T03:01:39;48299.56;;;-144.14;100.00
7075;BME280;3578;51.568;6.932;2023-04-22T03:04:06;48303.56;;;-144.14;100.00
7075;BME280;3578;51.568;6.932;2023-04-22T03:06:34;48241.53;;;-144.14;100.00
7075;BME280;3578;51.568;6.932;2023-04-22T03:09:01;48197.53;;;-144.14;100.00
7075;BME280;3578;51.568;6.932;2023-04-22T03:11:28;48217.53;;;-144.14;100.00
7075;BME280;3578;51.568;6.932;2023-04-22T03:13:55;48239.53;;;-144.14;100.00
7075;BME280;3578;51.568;6.932;2023-04-22T03:16:22;48287.56;;;-144.14;100.00
7075;BME280;3578;51.568;6.932;2023-04-22T03:18:50;48273.56;;;-144.14;100.00
7075;BME280;3578;51.568;6.932;2023-04-22T03:21:17;48159.50;;;-144.14;100.00
7075;BME280;3578;51.568;6.932;2023-04-22T03:23:46;48089.47;;;-144.14;100.00
7075;BME280;3578;51.568;6.932;2023-04-22T03:26:13;48127.47;;;-144.14;100.00
7075;BME280;3578;51.568;6.932;2023-04-22T03:28:40;48107.47;;;-144.14;100.00
7075;BME280;3578;51.568;6.932;2023-04-22T03:31:07;47975.41;;;-144.14;100.00
7075;BME280;3578;51.568;6.932;2023-04-22T03:33:34;47931.38;;;-144.14;100.00
7075;BME280;3578;51.568;6.932;2023-04-22T03:36:01;47783.31;;;-144.14;100.00
7075;BME280;3578;51.568;6.932;2023-04-22T03:38:28;47649.25;;;-144.14;100.00
7075;BME280;3578;51.568;6.932;2023-04-22T03:40:57;47651.25;;;-144.14;100.00
7075;BME280;3578;51.568;6.932;2023-04-22T03:43:24;47707.28;;;-144.14;100.00
7075;BME280;3578;51.568;6.932;2023-04-22T03:45:51;47749.31;;;-144.14;100.00
7075;BME280;3578;51.568;6.932;2023-04-22T03:48:18;47781.31;;;-144.14;100.00
7075;BME280;3578;51.568;6.932;2023-04-22T03:50:44;47867.34;;;-144.14;100.00
7075;BME280;3578;51.568;6.932;2023-04-22T03:53:11;47867.34;;;-144.14;100.00
7075;BME280;3578;51.568;6.932;2023-04-22T03:55:38;47765.31;;;-144.14;100.00
7075;BME280;3578;51.568;6.932;2023-04-22T03:58:07;47759.31;;;-144.14;100.00
7075;BME280;3578;51.568;6.932;2023-04-22T04:00:34;47779.31;;;-144.14;100.00
7075;BME280;3578;51.568;6.932;2023-04-22T04:03:01;47785.31;;;-144.14;100.00
7075;BME280;3578;51.568;6.932;2023-04-22T04:05:28;47685.28;;;-144.14;100.00
7075;BME280;3578;51.568;6.932;2023-04-22T04:07:55;47699.28;;;-144.14;100.00
7075;BME280;3578;51.568;6.932;2023-04-22T04:10:22;47725.28;;;-144.14;100.00
7075;BME280;3578;51.568;6.932;2023-04-22T04:12:49;47593.25;;;-144.14;100.00
7075;BME280;3578;51.568;6.932;2023-04-22T04:15:17;47591.25;;;-144.14;100.00
7075;BME280;3578;51.568;6.932;2023-04-22T04:17:46;47575.22;;;-144.14;100.00
7075;BME280;3578;51.568;6.932;2023-04-22T04:20:13;47519.22;;;-144.14;100.00
7075;BME280;3578;51.568;6.932;2023-04-22T04:22:40;47647.25;;;-144.14;100.00
7075;BME280;3578;51.568;6.932;2023-04-22T04:25:08;47623.25;;;-144.14;100.00
7075;BME280;3578;51.568;6.932;2023-04-22T04:27:36;47827.34;;;-144.14;100.00
7075;BME280;3578;51.568;6.932;2023-04-22T04:30:08;47881.34;;;-144.14;100.00
7075;BME280;3578;51.568;6.932;2023-04-22T04:32:36;47957.41;;;-144.14;100.00
7075;BME280;3578;51.568;6.932;2023-04-22T04:35:04;47925.38;;;-144.14;100.00
7075;BME280;3578;51.568;6.932;2023-04-22T04:37:31;47735.28;;;-144.14;100.00
7075;BME280;3578;51.568;6.932;2023-04-22T04:39:58;47705.28;;;-144.14;100.00
7075;BME280;3578;51.568;6.932;2023-04-22T04:42:26;47719.28;;;-144.14;100.00
7075;BME280;3578;51.568;6.932;2023-04-22T04:44:55;47813.34;;;-144.14;100.00
7075;BME280;3578;51.568;6.932;2023-04-22T04:47:23;47821.34;;;-144.14;100.00
7075;BME280;3578;51.568;6.932;2023-04-22T04:49:51;47819.34;;;-144.14;100.00
7075;BME280;3578;51.568;6.932;2023-04-22T04:52:19;47845.34;;;-144.14;100.00
7075;BME280;3578;51.568;6.932;2023-04-22T04:54:46;47939.38;;;-144.14;100.00
7075;BME280;3578;51.568;6.932;2023-04-22T04:57:12;47821.34;;;-144.14;100.00
7075;BME280;3578;51.568;6.932;2023-04-22T04:59:39;47689.28;;;-144.14;100.00
7075;BME280;3578;51.568;6.932;2023-04-22T05:02:06;47707.28;;;-144.14;100.00
7075;BME280;3578;51.568;6.932;2023-04-22T05:04:33;47613.25;;;-144.14;100.00
7075;BME280;3578;51.568;6.932;2023-04-22T05:07:02;47699.28;;;-144.14;100.00
7075;BME280;3578;51.568;6.932;2023-04-22T05:09:29;47815.34;;;-144.14;100.00
7075;BME280;3578;51.568;6.932;2023-04-22T05:12:01;47779.31;;;-144.14;100.00
7075;BME280;3578;51.568;6.932;2023-04-22T05:14:29;47831.34;;;-144.14;100.00
7075;BME280;3578;51.568;6.932;2023-04-22T05:16:56;47891.38;;;-144.14;100.00
7075;BME280;3578;51.568;6.932;2023-04-22T05:19:24;47861.34;;;-144.14;100.00
7075;BME280;3578;51.568;6.932;2023-04-22T05:21:50;47869.34;;;-144.14;100.00
7075;BME280;3578;51.568;6.932;2023-04-22T05:24:19;47851.34;;;-144.14;100.00
7075;BME280;3578;51.568;6.932;2023-04-22T05:26:46;47841.34;;;-144.14;100.00
7075;BME280;3578;51.568;6.932;2023-04-22T05:29:13;47775.31;;;-144.14;100.00
7075;BME280;3578;51.568;6.932;2023-04-22T05:31:40;47691.28;;;-144.14;100.00
7075;BME280;3578;51.568;6.932;2023-04-22T05:34:07;47719.28;;;-144.14;100.00
7075;BME280;3578;51.568;6.932;2023-04-22T05:36:34;47791.31;;;-144.14;100.00
7075;BME280;3578;51.568;6.932;2023-04-22T05:39:01;47749.31;;;-144.14;100.00
7075;BME280;3578;51.568;6.932;2023-04-22T05:41:29;47727.28;;;-144.14;100.00
7075;BME280;3578;51.568;6.932;2023-04-22T05:43:56;47869.34;;;-144.14;100.00
7075;BME280;3578;51.568;6.932;2023-04-22T05:46:23;47907.38;;;-144.14;100.00
7075;BME280;3578;51.568;6.932;2023-04-22T05:48:50;47917.38;;;-144.14;100.00
7075;BME280;3578;51.568;6.932;2023-04-22T05:51:20;47931.38;;;-144.14;100.00
7075;BME280;3578;51.568;6.932;2023-04-22T05:53:48;47869.34;;;-144.14;100.00
7075;BME280;3578;51.568;6.932;2023-04-22T05:56:15;47935.38;;;-144.14;100.00
7075;BME280;3578;51.568;6.932;2023-04-22T05:58:43;47939.38;;;-144.14;100.00
7075;BME280;3578;51.568;6.932;2023-04-22T06:01:10;47951.41;;;-144.14;100.00
7075;BME280;3578;51.568;6.932;2023-04-22T06:03:37;47987.41;;;-144.14;100.00
7075;BME280;3578;51.568;6.932;2023-04-22T06:06:05;47985.41;;;-144.14;100.00
7075;BME280;3578;51.568;6.932;2023-04-22T06:08:32;48067.44;;;-144.14;100.00
7075;BME280;3578;51.568;6.932;2023-04-22T06:10:59;48085.47;;;-144.14;100.00
7075;BME280;3578;51.568;6.932;2023-04-22T06:13:26;48107.47;;;-144.14;100.00
7075;BME280;3578;51.568;6.932;2023-04-22T06:15:54;48099.47;;;-144.14;100.00
7075;BME280;3578;51.568;6.932;2023-04-22T06:18:21;48141.50;;;-144.14;100.00
7075;BME280;3578;51.568;6.932;2023-04-22T06:20:48;48163.50;;;-144.14;100.00
7075;BME280;3578;51.568;6.932;2023-04-22T06:23:15;48235.53;;;-144.14;100.00
7075;BME280;3578;51.568;6.932;2023-04-22T06:25:42;48273.56;;;-144.14;100.00
7075;BME280;3578;51.568;6.932;2023-04-22T06:28:09;48323.59;;;-144.14;100.00
7075;BME280;3578;51.568;6.932;2023-04-22T06:30:36;48379.63;;;-144.14;100.00
7075;BME280;3578;51.568;6.932;2023-04-22T06:33:05;48461.69;;;-144.14;100.00
7075;BME280;3578;51.568;6.932;2023-04-22T06:35:32;48505.69;;;-144.14;100.00
7075;BME280;3578;51.568;6.932;2023-04-22T06:37:59;48551.72;;;-144.14;100.00
7075;BME280;3578;51.568;6.932;2023-04-22T06:40:26;48677.81;;;-144.14;100.00
7075;BME280;3578;51.568;6.932;2023-04-22T06:42:53;48837.94;;;-144.14;100.00
7075;BME280;3578;51.568;6.932;2023-04-22T06:45:20;48934.00;;;-144.14;100.00
7075;BME280;3578;51.568;6.932;2023-04-22T06:47:46;49106.13;;;-144.14;100.00
7075;BME280;3578;51.568;6.932;2023-04-22T06:50:15;49388.38;;;-144.14;98.75
7075;BME280;3578;51.568;6.932;2023-04-22T06:52:42;49552.53;;;-144.14;97.80
7075;BME280;3578;51.568;6.932;2023-04-22T06:55:09;49762.75;;;-144.14;96.27
7075;BME280;3578;51.568;6.932;2023-04-22T06:57:36;49956.94;;;-144.14;94.91
7075;BME280;3578;51.568;6.932;2023-04-22T07:00:05;50087.09;;;-144.14;93.74
7075;BME280;3578;51.568;6.932;2023-04-22T07:02:34;50307.34;;;-144.14;92.49
7075;BME280;3578;51.568;6.932;2023-04-22T07:05:01;51212.53;;;-144.14;87.19
7075;BME280;3578;51.568;6.932;2023-04-22T07:07:29;52807.19;;;-144.14;78.76
7075;BME280;3578;51.568;6.932;2023-04-22T07:09:56;54428.69;;;-144.14;63.10
7075;BME280;3578;51.568;6.932;2023-04-22T07:12:23;55890.50;;;-144.14;49.83
7075;BME280;3578;51.568;6.932;2023-04-22T07:14:51;56704.88;;;-144.14;47.38
7075;BME280;3578;51.568;6.932;2023-04-22T07:17:18;57326.84;;;-144.14;45.57
7075;BME280;3578;51.568;6.932;2023-04-22T07:19:47;58015.16;;;-144.14;43.65
7075;BME280;3578;51.568;6.932;2023-04-22T07:22:14;58549.03;;;-144.14;40.33
7075;BME280;3578;51.568;6.932;2023-04-22T07:24:42;59243.59;;;-144.14;40.21
7075;BME280;3578;51.568;6.932;2023-04-22T07:27:09;59689.31;;;-144.14;39.99
7075;BME280;3578;51.568;6.932;2023-04-22T07:29:36;60131.09;;;-144.14;38.05
7075;BME280;3578;51.568;6.932;2023-04-22T07:32:03;60811.94;;;-144.14;38.61
7075;BME280;3578;51.568;6.932;2023-04-22T07:34:31;61203.63;;;-144.14;34.38
7075;BME280;3578;51.568;6.932;2023-04-22T07:36:58;61370.34;;;-144.14;34.36
7075;BME280;3578;51.568;6.932;2023-04-22T07:39:25;61195.59;;;-144.14;37.12
7075;BME280;3578;51.568;6.932;2023-04-22T07:41:53;60930.44;;;-144.14;36.50
7075;BME280;3578;51.568;6.932;2023-04-22T07:44:22;61362.31;;;-144.14;35.63
7075;BME280;3578;51.568;6.932;2023-04-22T07:46:49;61561.19;;;-144.14;35.28
7075;BME280;3578;51.568;6.932;2023-04-22T07:49:16;61914.81;;;-144.14;33.48
7075;BME280;3578;51.568;6.932;2023-04-22T07:51:44;60811.94;;;-144.14;32.56
7075;BME280;3578;51.568;6.932;2023-04-22T07:54:11;60556.84;;;-144.14;33.16
7075;BME280;3578;51.568;6.932;2023-04-22T07:56:38;60283.72;;;-144.14;36.24
7075;BME280;3578;51.568;6.932;2023-04-22T07:59:07;59388.16;;;-144.14;38.99
7075;BME280;3578;51.568;6.932;2023-04-22T08:01:34;58725.66;;;-144.14;37.67
7075;BME280;3578;51.568;6.932;2023-04-22T08:04:01;58346.31;;;-144.14;38.81
7075;BME280;3578;51.568;6.932;2023-04-22T08:06:28;58539.00;;;-144.14;40.83
7075;BME280;3578;51.568;6.932;2023-04-22T08:08:56;58428.59;;;-144.14;38.94
7075;BME280;3578;51.568;6.932;2023-04-22T08:11:23;57772.31;;;-144.14;40.96
7075;BME280;3578;51.568;6.932;2023-04-22T08:13:50;57356.94;;;-144.14;43.65
7075;BME280;3578;51.568;6.932;2023-04-22T08:16:18;57124.19;;;-144.14;51.40
7075;BME280;3578;51.568;6.932;2023-04-22T08:18:46;56993.78;;;-144.14;46.14
7075;BME280;3578;51.568;6.932;2023-04-22T08:21:13;56837.28;;;-144.14;47.87
7075;BME280;3578;51.568;6.932;2023-04-22T08:23:40;56843.31;;;-144.14;54.18
7075;BME280;3578;51.568;6.932;2023-04-22T08:26:07;56572.47;;;-144.14;51.02
7075;BME280;3578;51.568;6.932;2023-04-22T08:28:36;56556.44;;;-144.14;56.61
7075;BME280;3578;51.568;6.932;2023-04-22T08:31:03;56418.03;;;-144.14;48.45
7075;BME280;3578;51.568;6.932;2023-04-22T08:33:32;56444.09;;;-144.14;51.36
7075;BME280;3578;51.568;6.932;2023-04-22T08:35:59;56668.78;;;-144.14;50.01
7075;BME280;3578;51.568;6.932;2023-04-22T08:38:28;56829.28;;;-144.14;46.05
7075;BME280;3578;51.568;6.932;2023-04-22T08:40:56;56895.47;;;-144.14;44.00
7075;BME280;3578;51.568;6.932;2023-04-22T08:43:25;57360.97;;;-144.14;44.29
7075;BME280;3578;51.568;6.932;2023-04-22T08:45:52;57395.06;;;-144.14;42.68
7075;BME280;3578;51.568;6.932;2023-04-22T08:48:19;57629.84;;;-144.14;42.57
7075;BME280;3578;51.568;6.932;2023-04-22T08:50:48;57956.94;;;-144.14;40.56
7075;BME280;3578;51.568;6.932;2023-04-22T08:53:15;58187.75;;;-144.14;40.30
7075;BME280;3578;51.568;6.932;2023-04-22T08:55:43;58163.66;;;-144.14;36.23
7075;BME280;3578;51.568;6.932;2023-04-22T08:58:11;57397.06;;;-144.14;38.31
7075;BME280;3578;51.568;6.932;2023-04-22T09:00:41;57238.56;;;-144.14;41.28
7075;BME280;3578;51.568;6.932;2023-04-22T09:03:09;56953.66;;;-144.14;43.44
7075;BME280;3578;51.568;6.932;2023-04-22T09:05:39;56909.53;;;-144.14;41.89
7075;BME280;3578;51.568;6.932;2023-04-22T09:08:08;57098.09;;;-144.14;40.44
7075;BME280;3578;51.568;6.932;2023-04-22T09:10:36;57128.22;;;-144.14;40.39
7075;BME280;3578;51.568;6.932;2023-04-22T09:13:05;57160.31;;;-144.14;41.69
7075;BME280;3578;51.568;6.932;2023-04-22T09:15:32;57051.97;;;-144.14;40.10
7075;BME280;3578;51.568;6.932;2023-04-22T09:18:01;56943.63;;;-144.14;40.21
7075;BME280;3578;51.568;6.932;2023-04-22T09:20:30;56831.28;;;-144.14;41.18
7075;BME280;3578;51.568;6.932;2023-04-22T09:23:02;56831.28;;;-144.14;41.75
7075;BME280;3578;51.568;6.932;2023-04-22T09:25:33;56755.03;;;-144.14;42.44
7075;BME280;3578;51.568;6.932;2023-04-22T09:28:00;56823.25;;;-144.14;42.72
7075;BME280;3578;51.568;6.932;2023-04-22T09:30:30;56791.16;;;-144.14;43.01
7075;BME280;3578;51.568;6.932;2023-04-22T09:33:00;56815.22;;;-144.14;42.63
7075;BME280;3578;51.568;6.932;2023-04-22T09:35:29;56736.97;;;-144.14;41.41
7075;BME280;3578;51.568;6.932;2023-04-22T09:37:57;56694.84;;;-144.14;41.46
7075;BME280;3578;51.568;6.932;2023-04-22T09:40:24;56646.72;;;-144.14;43.07
7075;BME280;3578;51.568;6.932;2023-04-22T09:42:55;56672.78;;;-144.14;43.64
7075;BME280;3578;51.568;6.932;2023-04-22T09:45:28;56722.94;;;-144.14;42.38
7075;BME280;3578;51.568;6.932;2023-04-22T09:48:07;56777.09;;;-144.14;44.08
7075;BME280;3578;51.568;6.932;2023-04-22T09:50:36;56684.81;;;-144.14;40.57
7075;BME280;3578;51.568;6.932;2023-04-22T09:53:05;56554.44;;;-144.14;40.60
7075;BME280;3578;51.568;6.932;2023-04-22T09:55:36;56630.66;;;-144.14;43.81
7075;BME280;3578;51.568;6.932;2023-04-22T09:58:07;56558.44;;;-144.14;43.03
7075;BME280;3578;51.568;6.932;2023-04-22T10:00:39;56614.63;;;-144.14;43.67
7075;BME280;3578;51.568;6.932;2023-04-22T10:03:07;56694.84;;;-144.14;43.51
7075;BME280;3578;51.568;6.932;2023-04-22T10:05:34;56743.00;;;-144.14;43.92
7075;BME280;3578;51.568;6.932;2023-04-22T10:08:03;56722.94;;;-144.14;43.39
7075;BME280;3578;51.568;6.932;2023-04-22T10:10:30;56712.91;;;-144.14;43.98
7075;BME280;3578;51.568;6.932;2023-04-22T10:12:58;56730.97;;;-144.14;42.51
7075;BME280;3578;51.568;6.932;2023-04-22T10:15:31;56674.78;;;-144.14;43.34
7075;BME280;3578;51.568;6.932;2023-04-22T10:17:59;56668.78;;;-144.14;43.26
7075;BME280;3578;51.568;6.932;2023-04-22T10:20:28;56620.63;;;-144.14;41.01
7075;BME280;3578;51.568;6.932;2023-04-22T10:22:56;56692.84;;;-144.14;42.59
7075;BME280;3578;51.568;6.932;2023-04-22T10:25:24;56773.09;;;-144.14;43.33
7075;BME280;3578;51.568;6.932;2023-04-22T10:28:02;56710.91;;;-144.14;43.75
7075;BME280;3578;51.568;6.932;2023-04-22T10:30:33;56718.94;;;-144.14;42.39
7075;BME280;3578;51.568;6.932;2023-04-22T10:33:35;56604.59;;;-144.14;42.03
7075;BME280;3578;51.568;6.932;2023-04-22T10:36:15;56530.34;;;-144.14;42.48
7075;BME280;3578;51.568;6.932;2023-04-22T10:39:16;56498.25;;;-144.14;44.54
7075;BME280;3578;51.568;6.932;2023-04-22T10:41:55;56502.28;;;-144.14;43.16
7075;BME280;3578;51.568;6.932;2023-04-22T10:44:22;56514.31;;;-144.14;44.37
7075;BME280;3578;51.568;6.932;2023-04-22T10:46:58;56658.75;;;-144.14;45.51
7075;BME280;3578;51.568;6.932;2023-04-22T10:49:28;56706.91;;;-144.14;43.85
7075;BME280;3578;51.568;6.932;2023-04-22T10:51:57;56787.13;;;-144.14;43.42
7075;BME280;3578;51.568;6.932;2023-04-22T10:54:56;56839.31;;;-144.14;42.53
7075;BME280;3578;51.568;6.932;2023-04-22T10:57:35;56895.47;;;-144.14;42.37
7075;BME280;3578;51.568;6.932;2023-04-22T11:00:19;56969.72;;;-144.14;42.97
7075;BME280;3578;51.568;6.932;2023-04-22T11:02:52;56895.47;;;-144.14;42.91
7075;BME280;3578;51.568;6.932;2023-04-22T11:05:22;56831.28;;;-144.14;43.12
7075;BME280;3578;51.568;6.932;2023-04-22T11:07:52;56751.03;;;-144.14;43.87
7075;BME280;3578;51.568;6.932;2023-04-22T11:10:47;56859.38;;;-144.14;44.79
7075;BME280;3578;51.568;6.932;2023-04-22T11:13:16;56925.56;;;-144.14;44.27
7075;BME280;3578;51.568;6.932;2023-04-22T11:15:45;56937.59;;;-144.14;43.42
7075;BME280;3578;51.568;6.932;2023-04-22T11:18:18;56963.69;;;-144.14;43.23
7075;BME280;3578;51.568;6.932;2023-04-22T11:20:46;56905.50;;;-144.14;41.17
7075;BME280;3578;51.568;6.932;2023-04-22T11:23:23;57027.88;;;-144.14;42.69
7075;BME280;3578;51.568;6.932;2023-04-22T11:25:55;57078.03;;;-144.14;42.15
7075;BME280;3578;51.568;6.932;2023-04-22T11:28:22;57027.88;;;-144.14;43.03
7075;BME280;3578;51.568;6.932;2023-04-22T11:30:49;57029.91;;;-144.14;44.16
7075;BME280;3578;51.568;6.932;2023-04-22T11:33:18;57062.00;;;-144.14;43.79
7075;BME280;3578;51.568;6.932;2023-04-22T11:35:48;57100.13;;;-144.14;43.96
7075;BME280;3578;51.568;6.932;2023-04-22T11:38:15;57230.53;;;-144.14;42.66
7075;BME280;3578;51.568;6.932;2023-04-22T11:40:43;57292.72;;;-144.14;41.34
7075;BME280;3578;51.568;6.932;2023-04-22T11:43:11;57244.56;;;-144.14;42.71
7075;BME280;3578;51.568;6.932;2023-04-22T11:45:39;57184.38;;;-144.14;41.75
7075;BME280;3578;51.568;6.932;2023-04-22T11:48:08;57090.09;;;-144.14;41.51
7075;BME280;3578;51.568;6.932;2023-04-22T11:50:39;56897.47;;;-144.14;42.34
7075;BME280;3578;51.568;6.932;2023-04-22T11:53:13;57158.31;;;-144.14;42.94
7075;BME280;3578;51.568;6.932;2023-04-22T11:55:43;57413.13;;;-144.14;42.12
7075;BME280;3578;51.568;6.932;2023-04-22T11:58:12;57661.94;;;-144.14;40.19
7075;BME280;3578;51.568;6.932;2023-04-22T12:00:41;57784.34;;;-144.14;39.69
7075;BME280;3578;51.568;6.932;2023-04-22T12:03:14;57826.50;;;-144.14;38.97
7075;BME280;3578;51.568;6.932;2023-04-22T12:05:44;57593.72;;;-144.14;39.04
7075;BME280;3578;51.568;6.932;2023-04-22T12:08:14;57619.81;;;-144.14;39.98
7075;BME280;3578;51.568;6.932;2023-04-22T12:10:43;57535.53;;;-144.14;39.13
7075;BME280;3578;51.568;6.932;2023-04-22T12:13:18;57483.34;;;-144.14;39.81
7075;BME280;3578;51.568;6.932;2023-04-22T12:15:45;57565.63;;;-144.14;39.78
7075;BME280;3578;51.568;6.932;2023-04-22T12:18:13;57573.66;;;-144.14;39.56
7075;BME280;3578;51.568;6.932;2023-04-22T12:20:41;57563.63;;;-144.14;39.00
7075;BME280;3578;51.568;6.932;2023-04-22T12:23:14;57457.28;;;-144.14;39.79
7075;BME280;3578;51.568;6.932;2023-04-22T12:25:42;57405.09;;;-144.14;40.47
7075;BME280;3578;51.568;6.932;2023-04-22T12:28:10;57220.50;;;-144.14;39.66
7075;BME280;3578;51.568;6.932;2023-04-22T12:30:38;57206.47;;;-144.14;41.47
7075;BME280;3578;51.568;6.932;2023-04-22T12:33:04;57051.97;;;-144.14;41.36
7075;BME280;3578;51.568;6.932;2023-04-22T12:35:32;57033.91;;;-144.14;41.79
7075;BME280;3578;51.568;6.932;2023-04-22T12:38:00;57009.84;;;-144.14;40.53
7075;BME280;3578;51.568;6.932;2023-04-22T12:40:27;57090.09;;;-144.14;41.58
7075;BME280;3578;51.568;6.932;2023-04-22T12:42:54;57019.88;;;-144.14;42.51
7075;BME280;3578;51.568;6.932;2023-04-22T12:45:21;56935.59;;;-144.14;41.39
7075;BME280;3578;51.568;6.932;2023-04-22T12:47:50;56971.72;;;-144.14;42.88
7075;BME280;3578;51.568;6.932;2023-04-22T12:50:18;56919.56;;;-144.14;42.29
7075;BME280;3578;51.568;6.932;2023-04-22T12:52:45;56997.78;;;-144.14;43.17
7075;BME280;3578;51.568;6.932;2023-04-22T12:55:14;57118.19;;;-144.14;41.30
7075;BME280;3578;51.568;6.932;2023-04-22T12:57:41;57240.56;;;-144.14;41.15
7075;BME280;3578;51.568;6.932;2023-04-22T13:00:09;57409.13;;;-144.14;41.46
7075;BME280;3578;51.568;6.932;2023-04-22T13:02:40;57511.44;;;-144.14;41.77